Seaforth, Minnesota
Current Conditions -  °F | °C
As of 10:53 AM on Friday 24 Oct 2014 (Local Time) from KRWF Reporting Station
Clear Clear  
Wind Chill: 57°   Ceiling: Unl
Heat Index: 57°   Visibility: 10mi
Dew Point: 50°   Wind: 7mph
Humidity: 77%   Direction: 280°W
Pressure: 29.86"   Gusts: NA
Location:  44.48°N, 95.33°W
Report Text: KRWF 241553Z AUTO 28006KT 10SM CLR 14/10 A2986 RMK AO2 SLP116 T01390100
Loading
Personal Weather Stations






























Interactive Weather Map New forecast layout! Learn more

10-Day Weather Forecast

Advertisements
Track Severe Weather on mobile